Time;durP1;ratioP1;P1;durP2;ratioP2;P2;SDS_P1;SDS_P2;PMS_P1;PMS_P2;Temp;Humidity;BMP_temperature;BMP_pressure;BME280_temperature;BME280_humidity;BME280_pressure;Samples;Min_cycle;Max_cycle;Signal;HPM_P1;HPM_P2
2020/12/08 00:03:52;;;;;;;12.17;8.40;;;;;;;;;;4940642;29;20468;-96
2020/12/08 00:11:55;;;;;;;10.60;8.50;;;;;;;;;;5609886;23;20458;-96
2020/12/08 00:14:44;;;;;;;11.13;8.07;;;;;;;;;;4999093;28;20485;-96
2020/12/08 00:17:28;;;;;;;9.17;7.53;;;;;;;;;;4980367;28;20421;-96
2020/12/08 00:20:00;;;;;;;9.90;6.90;;;;;;;;;;5206890;23;20568;-96
2020/12/08 00:22:29;;;;;;;9.43;6.57;;;;;;;;;;4959326;29;20487;-96
2020/12/08 00:25:06;;;;;;;8.87;6.10;;;;;;;;;;4938186;29;20451;-96
2020/12/08 00:27:38;;;;;;;8.40;6.03;;;;;;;;;;4975737;29;20465;-96
2020/12/08 00:30:11;;;;;;;6.00;4.73;;;;;;;;;;4976311;29;20451;-96
2020/12/08 00:32:38;;;;;;;8.93;6.57;;;;;;;;;;4973801;29;20518;-96
2020/12/08 00:35:07;;;;;;;10.13;7.60;;;;;;;;;;4975450;29;20451;-96
2020/12/08 00:37:33;;;;;;;11.27;8.50;;;;;;;;;;4970421;29;20482;-95
2020/12/08 00:40:00;;;;;;;12.53;9.37;;;;;;;;;;4967868;29;20974;-96
2020/12/08 00:42:26;;;;;;;12.10;9.00;;;;;;;;;;4962520;29;20472;-96
2020/12/08 00:44:52;;;;;;;12.17;9.57;;;;;;;;;;4963704;29;20928;-96
2020/12/08 00:47:21;;;;;;;13.37;10.07;;;;;;;;;;4967919;29;20457;-96
2020/12/08 00:49:47;;;;;;;11.90;10.07;;;;;;;;;;4971770;28;20491;-96
2020/12/08 00:52:18;;;;;;;9.80;8.80;;;;;;;;;;4969950;29;20588;-96
2020/12/08 00:54:44;;;;;;;11.00;8.60;;;;;;;;;;4973060;29;20458;-96
2020/12/08 00:57:11;;;;;;;11.03;7.47;;;;;;;;;;4957585;29;20473;-96
2020/12/08 00:59:37;;;;;;;10.57;7.60;;;;;;;;;;4968872;29;20616;-96
2020/12/08 01:02:05;;;;;;;11.65;8.20;;;;;;;;;;4967883;29;20454;-94
2020/12/08 01:04:31;;;;;;;8.68;7.45;;;;;;;;;;4965013;29;20203;-95
2020/12/08 01:06:57;;;;;;;8.43;7.10;;;;;;;;;;4964808;29;20214;-94
2020/12/08 01:09:24;;;;;;;8.60;7.60;;;;;;;;;;4965115;29;20499;-94
2020/12/08 01:11:50;;;;;;;10.63;7.90;;;;;;;;;;4963333;29;20501;-94
2020/12/08 01:14:16;;;;;;;11.93;8.67;;;;;;;;;;4964673;29;20209;-94
2020/12/08 01:16:42;;;;;;;14.73;9.67;;;;;;;;;;4961492;29;20452;-96
2020/12/08 01:19:08;;;;;;;12.60;9.57;;;;;;;;;;4965990;29;20467;-95
2020/12/08 01:21:34;;;;;;;13.07;9.07;;;;;;;;;;4966563;28;20484;-95
2020/12/08 01:24:00;;;;;;;20.20;10.70;;;;;;;;;;4965339;29;20550;-96
2020/12/08 01:26:28;;;;;;;18.60;9.60;;;;;;;;;;4968223;29;20466;-96
2020/12/08 01:28:54;;;;;;;12.43;7.90;;;;;;;;;;4948011;29;20458;-96
2020/12/08 01:31:21;;;;;;;10.27;8.50;;;;;;;;;;4952336;29;20233;-96
2020/12/08 01:33:48;;;;;;;8.60;7.33;;;;;;;;;;4974421;29;20473;-96
2020/12/08 01:39:08;;;;;;;9.30;7.73;;;;;;;;;;4980999;29;20450;-96
2020/12/08 01:41:36;;;;;;;13.43;7.90;;;;;;;;;;4980681;29;20455;-96
2020/12/08 01:44:04;;;;;;;10.30;7.73;;;;;;;;;;4978840;29;20476;-96
2020/12/08 01:46:32;;;;;;;11.33;7.80;;;;;;;;;;4978164;29;20853;-96
2020/12/08 01:48:59;;;;;;;8.05;5.70;;;;;;;;;;4959134;29;20444;-96
2020/12/08 01:51:26;;;;;;;14.60;9.10;;;;;;;;;;4959695;29;20226;-96
2020/12/08 01:53:56;;;;;;;8.73;6.37;;;;;;;;;;4980368;29;20487;-96
2020/12/08 01:56:25;;;;;;;12.37;6.70;;;;;;;;;;4978716;29;20440;-96
2020/12/08 01:59:04;;;;;;;14.02;7.32;;;;;;;;;;4979960;29;20445;-96
2020/12/08 02:01:32;;;;;;;16.33;7.70;;;;;;;;;;4979403;29;20301;-96
2020/12/08 02:06:46;;;;;;;13.70;6.57;;;;;;;;;;4972594;29;20463;-96
2020/12/08 02:09:14;;;;;;;43.90;9.25;;;;;;;;;;4959193;29;20466;-96
2020/12/08 02:12:01;;;;;;;8.88;5.85;;;;;;;;;;4965088;29;20215;-96
2020/12/08 02:14:39;;;;;;;10.68;6.05;;;;;;;;;;4966152;29;20210;-96
2020/12/08 02:17:09;;;;;;;7.22;5.32;;;;;;;;;;4968188;29;20221;-96
2020/12/08 02:19:36;;;;;;;12.38;6.78;;;;;;;;;;4974620;29;20221;-96
2020/12/08 02:22:08;;;;;;;8.18;6.20;;;;;;;;;;4976614;28;20244;-96
2020/12/08 02:24:34;;;;;;;14.88;6.85;;;;;;;;;;4978837;29;20196;-95
2020/12/08 02:27:01;;;;;;;9.88;6.40;;;;;;;;;;4977330;29;20212;-96
2020/12/08 02:32:20;;;;;;;15.00;8.00;;;;;;;;;;4975721;29;20267;-96
2020/12/08 02:34:48;;;;;;;35.58;8.90;;;;;;;;;;4977389;29;20209;-96
2020/12/08 02:37:16;;;;;;;13.13;8.13;;;;;;;;;;4979309;28;20289;-96
2020/12/08 02:39:42;;;;;;;12.50;8.15;;;;;;;;;;4975813;29;20216;-96
2020/12/08 02:42:11;;;;;;;15.02;7.95;;;;;;;;;;4976675;29;20199;-96
2020/12/08 02:44:38;;;;;;;10.57;6.93;;;;;;;;;;4973983;29;20222;-96
2020/12/08 02:47:04;;;;;;;16.83;8.10;;;;;;;;;;4975178;29;20446;-95
2020/12/08 02:49:30;;;;;;;16.52;9.38;;;;;;;;;;4967306;29;20229;-94
2020/12/08 02:51:56;;;;;;;27.03;13.20;;;;;;;;;;4965363;29;20237;-94
2020/12/08 02:54:23;;;;;;;22.15;12.07;;;;;;;;;;4967479;29;20518;-95
2020/12/08 02:56:49;;;;;;;17.73;10.35;;;;;;;;;;4966523;29;20512;-94
2020/12/08 02:59:16;;;;;;;16.40;10.65;;;;;;;;;;4970906;29;20677;-95
2020/12/08 03:01:42;;;;;;;17.25;10.60;;;;;;;;;;4970616;29;20229;-96
2020/12/08 03:04:08;;;;;;;18.83;11.15;;;;;;;;;;4972127;29;20630;-95
2020/12/08 03:06:34;;;;;;;16.70;10.52;;;;;;;;;;4971715;29;20269;-96
2020/12/08 03:09:00;;;;;;;18.52;12.18;;;;;;;;;;4971689;29;20301;-96
2020/12/08 03:11:34;;;;;;;22.35;13.20;;;;;;;;;;4969403;29;20228;-95
2020/12/08 03:14:00;;;;;;;23.90;14.30;;;;;;;;;;4955235;29;20208;-95
2020/12/08 03:16:26;;;;;;;26.40;16.63;;;;;;;;;;4971903;29;20223;-96
2020/12/08 03:18:52;;;;;;;32.90;18.25;;;;;;;;;;4967594;29;21105;-96
2020/12/08 03:21:19;;;;;;;32.72;18.60;;;;;;;;;;4970179;28;20296;-96
2020/12/08 03:23:45;;;;;;;35.58;18.13;;;;;;;;;;4972060;29;20224;-96
2020/12/08 03:26:19;;;;;;;26.63;16.53;;;;;;;;;;4974368;29;20308;-96
2020/12/08 03:28:46;;;;;;;25.92;13.73;;;;;;;;;;4971147;29;20481;-96
2020/12/08 03:31:13;;;;;;;25.55;15.32;;;;;;;;;;4971886;29;20258;-96
2020/12/08 03:33:39;;;;;;;29.10;16.20;;;;;;;;;;4969046;29;20203;-96
2020/12/08 03:36:10;;;;;;;27.83;14.95;;;;;;;;;;4971620;29;20237;-94
2020/12/08 03:38:36;;;;;;;20.87;11.53;;;;;;;;;;4951925;29;20671;-96
2020/12/08 03:41:02;;;;;;;16.40;10.33;;;;;;;;;;4972156;29;20446;-96
2020/12/08 03:43:32;;;;;;;17.35;10.73;;;;;;;;;;4974745;29;20463;-96
2020/12/08 03:46:17;;;;;;;20.13;13.23;;;;;;;;;;4976294;28;20214;-96
2020/12/08 03:49:08;;;;;;;21.67;15.15;;;;;;;;;;4946431;29;20222;-96
2020/12/08 03:51:38;;;;;;;15.20;10.35;;;;;;;;;;4975032;28;20229;-96
2020/12/08 03:54:09;;;;;;;13.50;10.50;;;;;;;;;;4975114;28;20270;-96
2020/12/08 03:56:44;;;;;;;15.27;9.48;;;;;;;;;;4973133;29;20447;-96
2020/12/08 03:59:16;;;;;;;12.87;9.40;;;;;;;;;;4959287;29;20198;-96
2020/12/08 04:01:44;;;;;;;10.88;7.68;;;;;;;;;;4956818;29;20489;-96
2020/12/08 04:04:12;;;;;;;10.30;7.10;;;;;;;;;;4968626;29;20214;-96
2020/12/08 04:06:38;;;;;;;11.63;7.70;;;;;;;;;;4956322;29;20212;-96
2020/12/08 04:09:05;;;;;;;18.33;11.40;;;;;;;;;;4956620;29;20218;-96
2020/12/08 04:11:32;;;;;;;20.13;14.17;;;;;;;;;;4975587;29;20228;-96
2020/12/08 04:14:02;;;;;;;25.07;15.80;;;;;;;;;;4974910;29;20470;-96
2020/12/08 04:16:29;;;;;;;21.92;15.65;;;;;;;;;;4974615;29;20842;-96
2020/12/08 04:19:05;;;;;;;22.95;16.17;;;;;;;;;;4974531;29;20194;-96
2020/12/08 04:21:33;;;;;;;29.40;16.73;;;;;;;;;;4976410;28;20238;-96
2020/12/08 04:24:00;;;;;;;26.83;17.00;;;;;;;;;;4977626;28;20539;-96
2020/12/08 04:26:27;;;;;;;25.07;17.90;;;;;;;;;;4976083;28;20199;-96
2020/12/08 04:31:37;;;;;;;21.90;14.90;;;;;;;;;;4974321;29;20485;-96
2020/12/08 04:34:05;;;;;;;27.63;17.13;;;;;;;;;;4971641;28;20497;-96
2020/12/08 04:36:33;;;;;;;22.00;16.60;;;;;;;;;;4973373;29;20203;-96
2020/12/08 04:39:03;;;;;;;21.37;14.13;;;;;;;;;;4976355;29;20451;-96
2020/12/08 04:41:31;;;;;;;24.53;16.57;;;;;;;;;;4971481;29;20446;-96
2020/12/08 04:43:59;;;;;;;24.27;16.43;;;;;;;;;;4936713;29;20459;-96
2020/12/08 04:46:28;;;;;;;28.67;18.17;;;;;;;;;;4965404;29;20458;-96
2020/12/08 04:48:54;;;;;;;29.47;18.07;;;;;;;;;;4967978;29;20211;-96
2020/12/08 04:51:29;;;;;;;21.90;15.83;;;;;;;;;;4972284;29;20492;-96
2020/12/08 04:53:56;;;;;;;17.60;13.53;;;;;;;;;;4973641;29;20970;-96
2020/12/08 04:56:22;;;;;;;23.70;14.13;;;;;;;;;;4967360;29;20522;-96
2020/12/08 04:58:49;;;;;;;23.27;14.83;;;;;;;;;;4972133;29;20548;-96
2020/12/08 05:01:24;;;;;;;21.17;14.80;;;;;;;;;;4955957;29;21030;-96
2020/12/08 05:03:56;;;;;;;24.13;15.40;;;;;;;;;;4968903;28;20504;-96
2020/12/08 05:06:27;;;;;;;24.13;15.73;;;;;;;;;;4950907;29;20470;-96
2020/12/08 05:09:00;;;;;;;16.67;11.00;;;;;;;;;;4965458;29;20462;-96
2020/12/08 05:11:28;;;;;;;13.30;8.27;;;;;;;;;;4970634;29;20562;-96
2020/12/08 05:13:57;;;;;;;10.33;7.13;;;;;;;;;;4951732;29;20468;-96
2020/12/08 05:16:25;;;;;;;11.95;8.07;;;;;;;;;;4968709;29;20486;-96
2020/12/08 05:18:51;;;;;;;11.10;7.17;;;;;;;;;;4964283;29;20203;-96
2020/12/08 05:21:17;;;;;;;13.00;7.80;;;;;;;;;;4963338;28;20490;-95
2020/12/08 05:23:44;;;;;;;18.00;12.60;;;;;;;;;;4963468;29;20457;-96
2020/12/08 05:26:11;;;;;;;15.93;11.50;;;;;;;;;;4968913;29;20465;-96
2020/12/08 05:28:38;;;;;;;15.47;9.73;;;;;;;;;;4974374;29;20434;-96
2020/12/08 05:31:07;;;;;;;15.10;10.23;;;;;;;;;;4971635;29;20474;-96
2020/12/08 05:33:33;;;;;;;16.43;11.17;;;;;;;;;;4973608;29;20504;-96
2020/12/08 05:36:00;;;;;;;17.80;12.37;;;;;;;;;;4970790;29;20472;-96
2020/12/08 05:38:28;;;;;;;12.13;9.23;;;;;;;;;;4967818;28;20451;-96
2020/12/08 05:40:56;;;;;;;13.10;9.53;;;;;;;;;;4962039;29;20555;-96
2020/12/08 05:43:27;;;;;;;10.60;9.13;;;;;;;;;;4968384;29;20518;-96
2020/12/08 05:45:58;;;;;;;16.00;11.43;;;;;;;;;;4964549;29;20205;-96
2020/12/08 05:48:33;;;;;;;16.67;10.33;;;;;;;;;;4961680;29;20560;-96
2020/12/08 05:51:00;;;;;;;14.87;9.60;;;;;;;;;;4954202;29;20481;-96
2020/12/08 05:53:26;;;;;;;18.67;10.30;;;;;;;;;;4956779;29;20463;-96
2020/12/08 05:56:02;;;;;;;15.80;9.27;;;;;;;;;;4959639;28;20457;-96
2020/12/08 05:58:29;;;;;;;12.90;7.70;;;;;;;;;;4959553;29;20982;-96
2020/12/08 06:01:00;;;;;;;14.63;7.90;;;;;;;;;;4959590;29;20469;-96
2020/12/08 06:03:26;;;;;;;18.50;10.50;;;;;;;;;;4958487;29;20465;-96
2020/12/08 06:05:52;;;;;;;23.30;11.10;;;;;;;;;;4960257;29;20553;-96
2020/12/08 06:08:20;;;;;;;27.47;13.63;;;;;;;;;;4962962;29;20517;-96
2020/12/08 06:10:47;;;;;;;17.60;10.20;;;;;;;;;;4972076;29;20455;-96
2020/12/08 06:13:22;;;;;;;17.93;10.00;;;;;;;;;;4966321;28;20490;-95
2020/12/08 06:15:49;;;;;;;16.27;9.10;;;;;;;;;;4942909;29;20456;-96
2020/12/08 06:18:15;;;;;;;16.73;10.70;;;;;;;;;;4946383;29;20459;-96
2020/12/08 06:20:42;;;;;;;17.60;11.27;;;;;;;;;;4971768;28;20481;-96
2020/12/08 06:23:08;;;;;;;14.73;8.40;;;;;;;;;;4986783;28;20453;-95
2020/12/08 06:25:34;;;;;;;12.90;8.33;;;;;;;;;;4967357;28;20468;-95
2020/12/08 06:28:01;;;;;;;9.93;6.53;;;;;;;;;;4966779;28;20474;-95
2020/12/08 06:30:27;;;;;;;12.07;7.20;;;;;;;;;;4974452;28;20488;-96
2020/12/08 06:33:03;;;;;;;9.93;6.93;;;;;;;;;;4987642;28;20496;-96
2020/12/08 06:36:04;;;;;;;11.77;7.45;;;;;;;;;;4985104;28;20463;-96
2020/12/08 06:38:36;;;;;;;17.10;9.23;;;;;;;;;;4978576;28;20207;-96
2020/12/08 07:11:18;;;;;;;18.33;12.27;;;;;;;;;;5000363;28;20436;-96
2020/12/08 07:29:08;;;;;;;33.90;21.13;;;;;;;;;;4998371;28;20431;-96
2020/12/08 07:37:24;;;;;;;42.93;28.77;;;;;;;;;;4996029;28;20461;-96
2020/12/08 07:40:06;;;;;;;37.23;26.33;;;;;;;;;;4989929;23;20469;-96
2020/12/08 07:45:48;;;;;;;38.30;24.23;;;;;;;;;;4973828;29;20454;-96
2020/12/08 07:48:17;;;;;;;34.00;23.00;;;;;;;;;;4953152;29;20275;-95
2020/12/08 07:50:44;;;;;;;31.27;18.90;;;;;;;;;;4983252;28;20489;-94
2020/12/08 07:53:12;;;;;;;34.17;21.17;;;;;;;;;;4977724;28;20493;-96
2020/12/08 07:55:39;;;;;;;33.87;22.90;;;;;;;;;;4988571;28;20478;-96
2020/12/08 07:58:13;;;;;;;42.10;26.83;;;;;;;;;;4963440;28;20454;-96
2020/12/08 08:00:39;;;;;;;49.70;30.50;;;;;;;;;;4983779;28;20458;-96
2020/12/08 08:03:08;;;;;;;62.07;38.00;;;;;;;;;;4988243;28;20472;-96
2020/12/08 08:05:34;;;;;;;64.10;38.77;;;;;;;;;;4972320;28;20485;-96
2020/12/08 08:08:01;;;;;;;73.60;46.77;;;;;;;;;;4968072;29;20451;-96
2020/12/08 08:10:27;;;;;;;58.30;38.67;;;;;;;;;;4970955;28;20457;-96
2020/12/08 08:12:53;;;;;;;56.50;35.03;;;;;;;;;;4987910;28;20568;-96
2020/12/08 08:15:19;;;;;;;51.23;32.80;;;;;;;;;;4979060;28;20557;-96
2020/12/08 08:17:46;;;;;;;46.47;27.43;;;;;;;;;;4967351;29;20464;-96
2020/12/08 08:20:14;;;;;;;47.10;29.80;;;;;;;;;;4966933;28;20461;-96
2020/12/08 08:22:40;;;;;;;60.27;37.27;;;;;;;;;;4985058;28;21029;-96
2020/12/08 08:25:06;;;;;;;58.13;32.67;;;;;;;;;;4977280;28;20472;-96
2020/12/08 08:27:32;;;;;;;54.83;33.00;;;;;;;;;;4970938;28;20466;-95
2020/12/08 08:32:39;;;;;;;42.80;24.13;;;;;;;;;;4963351;28;20550;-94
2020/12/08 08:35:05;;;;;;;40.10;23.90;;;;;;;;;;4956441;28;20473;-96
2020/12/08 08:37:35;;;;;;;41.43;23.67;;;;;;;;;;4968696;28;20464;-96
2020/12/08 08:40:01;;;;;;;40.80;25.77;;;;;;;;;;4983667;28;20542;-96
2020/12/08 08:42:27;;;;;;;38.90;23.23;;;;;;;;;;4989326;28;20476;-96
2020/12/08 08:44:54;;;;;;;35.30;22.80;;;;;;;;;;4985527;28;20457;-96
2020/12/08 08:47:21;;;;;;;36.40;21.90;;;;;;;;;;4984398;28;20454;-96
2020/12/08 08:49:47;;;;;;;32.40;20.40;;;;;;;;;;4998460;28;20557;-96
2020/12/08 08:52:13;;;;;;;40.73;25.70;;;;;;;;;;4998532;28;20559;-95
2020/12/08 08:54:41;;;;;;;43.43;26.20;;;;;;;;;;4984439;28;20460;-96
2020/12/08 08:57:08;;;;;;;49.30;28.13;;;;;;;;;;4986095;28;20496;-96
2020/12/08 08:59:34;;;;;;;43.37;25.70;;;;;;;;;;4985041;28;20541;-96
2020/12/08 09:02:00;;;;;;;40.23;24.90;;;;;;;;;;4985730;28;20450;-96
2020/12/08 09:04:26;;;;;;;42.53;23.00;;;;;;;;;;4982396;28;20512;-95
2020/12/08 09:06:52;;;;;;;37.80;23.23;;;;;;;;;;5004077;28;20452;-96
2020/12/08 09:09:18;;;;;;;42.63;24.00;;;;;;;;;;4988256;28;20525;-96
2020/12/08 09:11:45;;;;;;;38.97;23.77;;;;;;;;;;4996829;28;20480;-96
2020/12/08 09:14:11;;;;;;;30.77;20.30;;;;;;;;;;4985742;28;20452;-95
2020/12/08 09:16:39;;;;;;;33.70;20.00;;;;;;;;;;4986001;28;20473;-96
2020/12/08 09:19:05;;;;;;;32.77;20.20;;;;;;;;;;4984764;28;20460;-96
2020/12/08 09:21:31;;;;;;;53.67;35.00;;;;;;;;;;4984627;28;20445;-95
2020/12/08 09:23:57;;;;;;;57.60;35.40;;;;;;;;;;4988167;28;20468;-94
2020/12/08 09:26:23;;;;;;;54.60;34.80;;;;;;;;;;4982835;28;20457;-96
2020/12/08 09:28:50;;;;;;;43.27;26.27;;;;;;;;;;4999977;28;20453;-94
2020/12/08 09:31:17;;;;;;;44.10;25.93;;;;;;;;;;4998186;28;20454;-95
2020/12/08 09:33:43;;;;;;;43.60;25.13;;;;;;;;;;4980707;28;20504;-95
2020/12/08 09:36:09;;;;;;;44.63;26.80;;;;;;;;;;4984749;28;20537;-96
2020/12/08 09:38:35;;;;;;;47.57;27.80;;;;;;;;;;5001402;28;20473;-95
2020/12/08 09:41:01;;;;;;;47.00;28.70;;;;;;;;;;5004621;28;20444;-94
2020/12/08 09:43:27;;;;;;;47.13;28.40;;;;;;;;;;4989511;28;21174;-96
2020/12/08 09:45:54;;;;;;;46.20;28.13;;;;;;;;;;4989458;28;20449;-96
2020/12/08 09:48:21;;;;;;;43.57;27.40;;;;;;;;;;4983144;28;21090;-95
2020/12/08 09:50:47;;;;;;;45.17;27.47;;;;;;;;;;5002639;28;20448;-96
2020/12/08 09:53:14;;;;;;;41.60;25.70;;;;;;;;;;4987897;28;20501;-96
2020/12/08 09:55:43;;;;;;;38.90;25.27;;;;;;;;;;4986131;28;20445;-96
2020/12/08 09:58:09;;;;;;;38.57;25.00;;;;;;;;;;4987600;28;20449;-95
2020/12/08 10:00:35;;;;;;;42.97;24.50;;;;;;;;;;4991481;28;20459;-96
2020/12/08 10:03:02;;;;;;;35.20;21.10;;;;;;;;;;4988568;28;20498;-95
2020/12/08 10:05:28;;;;;;;30.80;18.77;;;;;;;;;;4984347;28;20461;-95
2020/12/08 10:07:55;;;;;;;35.70;22.03;;;;;;;;;;4986662;28;20467;-96
2020/12/08 10:10:21;;;;;;;35.43;21.87;;;;;;;;;;4986339;28;20449;-95
2020/12/08 10:12:49;;;;;;;39.47;23.57;;;;;;;;;;4985746;28;20504;-96
2020/12/08 10:15:17;;;;;;;35.97;22.93;;;;;;;;;;4987281;28;20473;-96
2020/12/08 10:17:43;;;;;;;48.67;27.70;;;;;;;;;;4998321;28;20472;-95
2020/12/08 10:20:10;;;;;;;42.37;27.33;;;;;;;;;;5006833;28;20445;-96
2020/12/08 10:22:41;;;;;;;45.67;28.97;;;;;;;;;;4988691;28;20463;-96
2020/12/08 10:25:07;;;;;;;43.57;26.60;;;;;;;;;;4991617;28;20454;-96
2020/12/08 10:27:33;;;;;;;44.43;26.80;;;;;;;;;;4987611;28;20469;-96
2020/12/08 10:29:59;;;;;;;43.87;30.13;;;;;;;;;;4989770;28;20454;-96
2020/12/08 10:32:25;;;;;;;39.27;24.43;;;;;;;;;;4985670;28;20497;-95
2020/12/08 10:34:51;;;;;;;36.50;23.77;;;;;;;;;;4986327;28;20449;-95
2020/12/08 10:37:19;;;;;;;39.53;25.13;;;;;;;;;;4985902;28;20812;-94
2020/12/08 10:39:45;;;;;;;43.73;26.10;;;;;;;;;;5001963;28;20503;-94
2020/12/08 10:42:11;;;;;;;42.90;26.83;;;;;;;;;;4986071;28;20481;-94
2020/12/08 10:44:37;;;;;;;39.60;24.63;;;;;;;;;;4992056;28;20449;-95
2020/12/08 10:47:03;;;;;;;45.57;28.67;;;;;;;;;;4993790;28;20444;-95
2020/12/08 10:49:29;;;;;;;51.43;30.97;;;;;;;;;;4986089;28;20480;-94
2020/12/08 10:51:55;;;;;;;51.00;30.70;;;;;;;;;;4989744;28;20501;-94
2020/12/08 10:54:22;;;;;;;49.53;30.80;;;;;;;;;;4986334;28;20449;-93
2020/12/08 10:56:50;;;;;;;45.13;28.57;;;;;;;;;;4989157;28;20485;-94
2020/12/08 10:59:16;;;;;;;43.63;27.27;;;;;;;;;;4993829;28;20465;-94
2020/12/08 11:01:42;;;;;;;44.50;28.13;;;;;;;;;;4991571;28;20464;-94
2020/12/08 11:04:08;;;;;;;45.70;26.30;;;;;;;;;;5003552;28;20452;-95
2020/12/08 11:06:34;;;;;;;43.63;26.40;;;;;;;;;;4989575;28;20460;-96
2020/12/08 11:09:00;;;;;;;35.23;21.93;;;;;;;;;;4985722;28;20446;-95
2020/12/08 11:11:28;;;;;;;42.00;24.97;;;;;;;;;;4983865;28;20469;-95
2020/12/08 11:13:54;;;;;;;43.03;24.43;;;;;;;;;;4986058;28;20513;-96
2020/12/08 11:16:21;;;;;;;39.97;23.30;;;;;;;;;;4985502;28;20465;-95
2020/12/08 11:18:48;;;;;;;42.23;26.27;;;;;;;;;;4991303;28;20460;-94
2020/12/08 11:21:14;;;;;;;44.30;26.20;;;;;;;;;;4995931;28;20450;-94
2020/12/08 11:23:40;;;;;;;37.20;23.80;;;;;;;;;;4968625;28;20450;-95
2020/12/08 11:26:09;;;;;;;42.63;26.17;;;;;;;;;;4984973;28;20478;-94
2020/12/08 11:28:36;;;;;;;40.10;25.37;;;;;;;;;;4983439;28;20467;-93
2020/12/08 11:31:02;;;;;;;40.53;25.50;;;;;;;;;;4984170;28;20449;-96
2020/12/08 11:33:28;;;;;;;37.40;24.07;;;;;;;;;;4983257;28;20512;-95
2020/12/08 11:35:54;;;;;;;49.00;29.17;;;;;;;;;;4983070;28;20449;-95
2020/12/08 11:38:21;;;;;;;46.17;27.70;;;;;;;;;;4979691;28;20485;-95
2020/12/08 11:40:47;;;;;;;45.23;28.20;;;;;;;;;;5002484;28;20969;-94
2020/12/08 11:43:13;;;;;;;45.03;31.80;;;;;;;;;;5005184;28;20532;-94
2020/12/08 11:45:40;;;;;;;42.17;27.73;;;;;;;;;;4999151;28;20452;-94
2020/12/08 11:48:06;;;;;;;35.43;22.40;;;;;;;;;;5000765;28;20474;-92
2020/12/08 11:50:32;;;;;;;34.80;22.77;;;;;;;;;;4982557;28;20468;-96
2020/12/08 11:52:58;;;;;;;41.27;30.27;;;;;;;;;;4985110;28;20481;-94
2020/12/08 11:55:24;;;;;;;46.17;32.07;;;;;;;;;;4982245;28;20508;-94
2020/12/08 11:57:50;;;;;;;41.33;29.20;;;;;;;;;;4984042;28;20481;-93
2020/12/08 12:00:16;;;;;;;44.63;30.47;;;;;;;;;;4982318;28;20461;-94
2020/12/08 12:02:43;;;;;;;35.30;24.37;;;;;;;;;;4983777;28;20477;-93
2020/12/08 12:05:09;;;;;;;41.97;28.33;;;;;;;;;;4984464;28;20456;-93
2020/12/08 12:07:35;;;;;;;40.53;28.13;;;;;;;;;;4982597;28;20469;-93
2020/12/08 12:10:01;;;;;;;40.10;26.97;;;;;;;;;;4983846;28;20520;-94
2020/12/08 12:12:27;;;;;;;40.40;24.60;;;;;;;;;;4988818;28;20504;-93
2020/12/08 12:14:53;;;;;;;38.77;25.57;;;;;;;;;;5003523;28;20460;-94
2020/12/08 12:17:19;;;;;;;37.23;24.50;;;;;;;;;;4981624;28;20896;-93
2020/12/08 12:19:46;;;;;;;30.90;20.67;;;;;;;;;;4983926;28;20441;-93
2020/12/08 12:22:12;;;;;;;30.70;20.57;;;;;;;;;;4981031;28;22274;-93
2020/12/08 12:24:38;;;;;;;33.67;22.40;;;;;;;;;;4980496;28;20816;-95
2020/12/08 12:27:04;;;;;;;35.70;24.60;;;;;;;;;;4979749;28;20488;-92
2020/12/08 12:29:31;;;;;;;34.43;20.80;;;;;;;;;;4996424;28;20548;-94
2020/12/08 12:31:57;;;;;;;30.13;21.00;;;;;;;;;;5003679;28;20468;-94
2020/12/08 12:34:23;;;;;;;31.40;20.60;;;;;;;;;;4996293;28;21010;-94
2020/12/08 12:36:50;;;;;;;32.43;20.80;;;;;;;;;;4996803;28;20520;-93
2020/12/08 12:39:16;;;;;;;33.97;21.03;;;;;;;;;;4980676;28;20461;-94
2020/12/08 12:41:42;;;;;;;34.03;22.03;;;;;;;;;;4983004;28;20461;-95
2020/12/08 12:44:09;;;;;;;30.30;19.70;;;;;;;;;;4982634;28;20461;-94
2020/12/08 12:46:35;;;;;;;28.67;19.03;;;;;;;;;;4992177;28;20473;-94
2020/12/08 12:49:01;;;;;;;29.23;19.50;;;;;;;;;;4981682;28;20461;-92
2020/12/08 12:51:27;;;;;;;29.20;18.40;;;;;;;;;;4979201;28;20489;-92
2020/12/08 12:53:54;;;;;;;29.87;20.33;;;;;;;;;;4984771;28;20485;-93
2020/12/08 12:56:22;;;;;;;27.60;18.77;;;;;;;;;;4984666;28;20949;-94
2020/12/08 12:58:48;;;;;;;31.73;19.43;;;;;;;;;;4988145;28;20458;-94
2020/12/08 13:01:14;;;;;;;33.37;21.03;;;;;;;;;;4991054;28;20461;-94
2020/12/08 13:03:40;;;;;;;33.50;22.70;;;;;;;;;;5007420;28;20445;-94
2020/12/08 13:06:07;;;;;;;35.10;21.20;;;;;;;;;;4992356;28;20461;-92
2020/12/08 13:08:33;;;;;;;33.77;22.97;;;;;;;;;;5001311;28;20448;-93
2020/12/08 13:11:00;;;;;;;35.87;23.57;;;;;;;;;;5002548;28;20456;-93
2020/12/08 13:13:26;;;;;;;31.90;22.73;;;;;;;;;;4997330;28;20496;-92
2020/12/08 13:15:52;;;;;;;35.87;21.87;;;;;;;;;;4993965;28;20466;-93
2020/12/08 13:18:18;;;;;;;34.27;23.10;;;;;;;;;;4990589;28;20483;-93
2020/12/08 13:20:44;;;;;;;32.87;20.37;;;;;;;;;;5002805;28;20941;-92
2020/12/08 13:23:10;;;;;;;30.50;20.53;;;;;;;;;;4991609;28;20464;-94
2020/12/08 13:25:36;;;;;;;31.60;20.30;;;;;;;;;;4982637;28;20470;-94
2020/12/08 13:28:03;;;;;;;25.17;18.40;;;;;;;;;;4984540;28;20461;-93
2020/12/08 13:30:30;;;;;;;31.53;21.17;;;;;;;;;;4986323;28;20453;-94
2020/12/08 13:32:56;;;;;;;35.23;21.60;;;;;;;;;;4987637;28;20504;-94
2020/12/08 13:35:22;;;;;;;30.17;19.50;;;;;;;;;;4983551;28;20501;-93
2020/12/08 13:37:48;;;;;;;28.93;18.67;;;;;;;;;;4985341;28;20449;-92
2020/12/08 13:40:14;;;;;;;32.70;21.37;;;;;;;;;;4984433;28;20456;-93
2020/12/08 13:42:43;;;;;;;32.17;20.97;;;;;;;;;;4987032;28;20489;-92
2020/12/08 13:45:10;;;;;;;30.27;20.20;;;;;;;;;;4983033;28;20476;-92
2020/12/08 13:47:36;;;;;;;28.57;19.57;;;;;;;;;;4986182;28;20485;-91
2020/12/08 13:50:02;;;;;;;32.63;21.73;;;;;;;;;;4986136;28;20453;-92
2020/12/08 13:52:28;;;;;;;35.17;23.10;;;;;;;;;;4986696;28;20550;-94
2020/12/08 13:54:54;;;;;;;39.00;26.07;;;;;;;;;;4971948;28;20456;-94
2020/12/08 13:57:20;;;;;;;42.43;25.37;;;;;;;;;;5000720;28;20468;-92
2020/12/08 13:59:46;;;;;;;37.20;22.93;;;;;;;;;;5004974;28;20448;-94
2020/12/08 14:02:16;;;;;;;41.57;25.80;;;;;;;;;;4997824;28;20465;-94
2020/12/08 14:04:42;;;;;;;40.50;25.03;;;;;;;;;;4993577;28;20469;-93
2020/12/08 14:07:08;;;;;;;43.53;26.70;;;;;;;;;;4985049;28;20461;-94
2020/12/08 14:09:34;;;;;;;45.10;27.57;;;;;;;;;;5000068;28;20468;-94
2020/12/08 14:12:00;;;;;;;39.40;25.73;;;;;;;;;;4996435;28;20463;-95
2020/12/08 14:14:26;;;;;;;35.13;23.40;;;;;;;;;;4978281;28;20465;-93
2020/12/08 14:16:56;;;;;;;36.00;24.50;;;;;;;;;;4980174;28;20524;-94
2020/12/08 14:19:23;;;;;;;40.50;27.50;;;;;;;;;;4979968;28;20851;-93
2020/12/08 14:21:49;;;;;;;49.57;29.80;;;;;;;;;;4980417;28;20454;-93
2020/12/08 14:24:19;;;;;;;41.47;27.23;;;;;;;;;;4981863;28;20476;-94
2020/12/08 14:26:45;;;;;;;38.07;21.67;;;;;;;;;;4986965;28;20476;-94
2020/12/08 14:29:11;;;;;;;38.47;23.90;;;;;;;;;;4989798;28;20456;-94
2020/12/08 14:31:37;;;;;;;37.60;25.67;;;;;;;;;;5005624;28;20445;-93
2020/12/08 14:34:05;;;;;;;40.80;26.00;;;;;;;;;;4985352;28;21034;-94
2020/12/08 14:36:32;;;;;;;38.87;24.13;;;;;;;;;;4986435;28;20457;-94
2020/12/08 14:38:58;;;;;;;39.17;24.67;;;;;;;;;;4984440;28;20457;-94
2020/12/08 14:41:24;;;;;;;35.43;24.10;;;;;;;;;;4983774;28;20465;-94
2020/12/08 14:43:50;;;;;;;47.20;28.87;;;;;;;;;;4991033;28;20508;-94
2020/12/08 14:46:16;;;;;;;39.83;25.13;;;;;;;;;;4993754;28;20450;-94
2020/12/08 14:48:42;;;;;;;36.27;23.23;;;;;;;;;;4986001;28;20442;-95
2020/12/08 14:51:08;;;;;;;40.80;26.83;;;;;;;;;;4987221;28;20450;-94
2020/12/08 14:53:35;;;;;;;37.33;22.73;;;;;;;;;;4984427;28;20489;-95
2020/12/08 14:56:03;;;;;;;38.47;23.00;;;;;;;;;;4984457;28;20489;-95
2020/12/08 14:58:29;;;;;;;31.60;20.10;;;;;;;;;;5001658;28;20457;-95
2020/12/08 15:00:55;;;;;;;34.37;20.30;;;;;;;;;;5004480;28;20460;-94
2020/12/08 15:03:21;;;;;;;32.80;19.67;;;;;;;;;;4998985;28;20473;-95
2020/12/08 15:05:47;;;;;;;31.13;19.93;;;;;;;;;;4997948;28;20458;-94
2020/12/08 15:08:13;;;;;;;37.10;22.10;;;;;;;;;;4982772;28;20454;-94
2020/12/08 15:10:42;;;;;;;35.37;21.07;;;;;;;;;;4984052;28;20530;-94
2020/12/08 15:13:08;;;;;;;34.40;21.70;;;;;;;;;;4981427;28;20501;-96
2020/12/08 15:15:34;;;;;;;36.60;21.30;;;;;;;;;;4986890;28;20453;-96
2020/12/08 15:18:00;;;;;;;44.77;26.60;;;;;;;;;;4984390;28;20450;-95
2020/12/08 15:20:26;;;;;;;43.63;25.87;;;;;;;;;;4983692;28;20437;-94
2020/12/08 15:22:52;;;;;;;42.93;25.43;;;;;;;;;;4982306;28;20505;-93
2020/12/08 15:25:18;;;;;;;41.60;25.67;;;;;;;;;;4981842;28;20449;-94
2020/12/08 15:27:45;;;;;;;45.17;26.40;;;;;;;;;;4984769;28;20468;-94
2020/12/08 15:30:11;;;;;;;39.40;25.50;;;;;;;;;;4991588;28;20444;-93
2020/12/08 15:32:37;;;;;;;42.90;27.07;;;;;;;;;;4989296;28;20488;-93
2020/12/08 15:35:04;;;;;;;56.73;32.37;;;;;;;;;;4983466;28;20515;-93
2020/12/08 15:37:30;;;;;;;50.47;30.10;;;;;;;;;;4985018;28;20453;-93
2020/12/08 15:39:56;;;;;;;50.73;30.70;;;;;;;;;;4983939;28;20454;-91